Petersburg, Virginia
Current Conditions -  °F | °C
As of 6:55 PM on Saturday 22 Nov 2014 (Local Time) from KPTB Reporting Station
Clear Clear  
Wind Chill: 35°   Ceiling: Unl
Heat Index: 35°   Visibility: 10mi
Dew Point: 20°   Wind: 0mph
Humidity: 55%   Direction: NA
Pressure: 30.35"   Gusts: NA
Location:  37.23°N, 77.4°W
Report Text: KPTB 222355Z AUTO 00000KT 10SM CLR 02/M07 A3035 RMK AO2 T00171066 10110 20002
Loading
Personal Weather Stations






























Interactive Weather Map New forecast layout! Learn more

10-Day Weather Forecast

Advertisements
Track Severe Weather on mobile